createdAt,value
2023-05-17T00:00:36.226Z,32.70
2023-05-17T00:03:12.212Z,32.70
2023-05-17T00:05:48.232Z,32.80
2023-05-17T00:08:24.241Z,32.90
2023-05-17T00:11:00.272Z,32.90
2023-05-17T00:13:38.057Z,33.00
2023-05-17T00:16:14.051Z,33.10
2023-05-17T00:18:50.177Z,33.10
2023-05-17T00:21:26.327Z,33.20
2023-05-17T00:24:02.384Z,33.20
2023-05-17T00:26:38.307Z,33.30
2023-05-17T00:29:14.282Z,33.40
2023-05-17T00:31:51.744Z,33.60
2023-05-17T00:34:28.138Z,33.70
2023-05-17T00:37:04.338Z,33.70
2023-05-17T00:39:40.306Z,33.70
2023-05-17T00:42:16.209Z,33.60
2023-05-17T00:44:52.164Z,33.60
2023-05-17T00:47:28.187Z,33.80
2023-05-17T00:50:05.694Z,33.90
2023-05-17T00:52:41.670Z,34.00
2023-05-17T00:55:19.797Z,34.20
2023-05-17T00:57:55.953Z,34.20
2023-05-17T01:00:33.294Z,34.30
2023-05-17T01:03:09.252Z,34.40
2023-05-17T01:05:45.482Z,34.40
2023-05-17T01:08:21.475Z,34.60
2023-05-17T01:11:31.497Z,34.70
2023-05-17T01:14:44.838Z,34.80
2023-05-17T01:17:36.479Z,34.70
2023-05-17T01:20:41.684Z,34.90
2023-05-17T01:23:48.050Z,35.00
2023-05-17T01:26:39.421Z,35.10
2023-05-17T01:29:17.230Z,35.40
2023-05-17T01:31:53.879Z,35.50
2023-05-17T01:34:30.256Z,35.60
2023-05-17T01:37:06.162Z,35.60
2023-05-17T01:39:42.127Z,35.70
2023-05-17T01:42:24.837Z,35.80
2023-05-17T01:45:07.619Z,35.80
2023-05-17T01:48:06.217Z,35.70
2023-05-17T01:50:43.490Z,35.80
2023-05-17T01:53:29.120Z,35.70
2023-05-17T01:56:10.844Z,35.80
2023-05-17T01:58:48.721Z,35.80
2023-05-17T02:01:26.677Z,35.80
2023-05-17T02:04:02.662Z,35.80
2023-05-17T02:06:43.483Z,35.90
2023-05-17T02:09:19.424Z,35.80
2023-05-17T02:11:55.800Z,35.90
2023-05-17T02:14:31.898Z,35.90
2023-05-17T02:17:07.838Z,35.90
2023-05-17T02:19:44.074Z,36.00
2023-05-17T02:22:19.985Z,36.00
2023-05-17T02:24:56.588Z,36.00
2023-05-17T02:27:32.525Z,36.00
2023-05-17T02:30:09.715Z,36.10
2023-05-17T02:32:45.871Z,36.10
2023-05-17T02:35:23.168Z,36.10
2023-05-17T02:38:01.172Z,36.10
2023-05-17T02:40:37.093Z,36.20
2023-05-17T02:43:13.014Z,36.20
2023-05-17T02:45:48.931Z,36.20
2023-05-17T02:48:24.953Z,36.30
2023-05-17T02:51:00.885Z,36.20
2023-05-17T02:53:36.906Z,36.30
2023-05-17T02:56:12.882Z,36.40
2023-05-17T02:58:49.116Z,36.40
2023-05-17T03:01:25.089Z,36.50
2023-05-17T03:04:01.952Z,36.60
2023-05-17T03:06:38.723Z,36.70
2023-05-17T03:09:14.822Z,36.80
2023-05-17T03:11:52.112Z,36.80
2023-05-17T03:14:32.709Z,37.30
2023-05-17T03:17:08.941Z,36.90
2023-05-17T03:19:45.162Z,37.10
2023-05-17T03:22:21.480Z,37.20
2023-05-17T03:24:57.888Z,37.50
2023-05-17T03:27:35.046Z,37.60
2023-05-17T03:30:11.337Z,37.70
2023-05-17T03:32:47.291Z,37.90
2023-05-17T03:35:23.659Z,38.00
2023-05-17T03:38:03.802Z,38.20
2023-05-17T03:40:41.464Z,38.40
2023-05-17T03:43:17.622Z,38.50
2023-05-17T03:45:53.678Z,38.80
2023-05-17T03:48:29.697Z,38.90
2023-05-17T03:51:05.939Z,39.10
2023-05-17T03:53:43.691Z,39.30
2023-05-17T03:56:19.901Z,39.40
2023-05-17T03:58:55.832Z,39.50
2023-05-17T04:01:33.499Z,39.50
2023-05-17T04:04:10.139Z,39.60
2023-05-17T04:06:46.124Z,39.70
2023-05-17T04:09:22.065Z,39.90
2023-05-17T04:11:58.008Z,40.00
2023-05-17T04:14:33.927Z,40.20
2023-05-17T04:17:10.057Z,40.20
2023-05-17T04:19:46.106Z,40.20
2023-05-17T04:22:22.137Z,40.30
2023-05-17T04:24:58.697Z,40.30
2023-05-17T04:27:35.761Z,40.40
2023-05-17T04:30:22.284Z,40.40
2023-05-17T04:33:01.727Z,40.40
2023-05-17T04:35:41.873Z,40.40
2023-05-17T04:38:18.680Z,40.40
2023-05-17T04:40:54.609Z,40.30
2023-05-17T04:43:32.300Z,40.30
2023-05-17T04:46:09.273Z,40.30
2023-05-17T04:48:45.647Z,40.20
2023-05-17T04:51:21.721Z,40.10
2023-05-17T04:54:00.955Z,40.10
2023-05-17T04:56:38.681Z,40.00
2023-05-17T04:59:19.558Z,39.90
2023-05-17T05:01:56.558Z,39.90
2023-05-17T05:04:32.981Z,39.70
2023-05-17T05:07:09.281Z,39.70
2023-05-17T05:09:45.454Z,39.70
2023-05-17T05:12:23.019Z,39.40
2023-05-17T05:15:00.837Z,39.10
2023-05-17T05:17:38.740Z,39.00
2023-05-17T05:20:14.975Z,38.90
2023-05-17T05:22:51.253Z,38.80
2023-05-17T05:25:28.697Z,38.70
2023-05-17T05:28:05.373Z,38.60
2023-05-17T05:30:42.149Z,38.60
2023-05-17T05:33:18.484Z,38.40
2023-05-17T05:35:55.757Z,38.30
2023-05-17T05:38:31.890Z,38.20
2023-05-17T05:41:08.097Z,38.10
2023-05-17T05:43:46.194Z,38.20
2023-05-17T05:46:23.362Z,38.10
2023-05-17T05:49:00.265Z,38.20
2023-05-17T05:51:37.329Z,38.30
2023-05-17T05:54:14.296Z,38.30
2023-05-17T05:56:51.281Z,38.30
2023-05-17T05:59:29.117Z,38.20
2023-05-17T06:02:07.036Z,38.30
2023-05-17T06:04:45.696Z,38.20
2023-05-17T06:07:22.000Z,38.30
2023-05-17T06:09:57.903Z,38.50
2023-05-17T06:12:33.818Z,38.50
2023-05-17T06:15:10.387Z,38.50
2023-05-17T06:17:46.483Z,38.20
2023-05-17T06:20:22.585Z,38.30
2023-05-17T06:22:58.612Z,38.30
2023-05-17T06:25:34.643Z,38.30
2023-05-17T06:28:10.710Z,38.20
2023-05-17T06:30:46.958Z,38.80
2023-05-17T06:33:23.135Z,38.50
2023-05-17T06:38:37.015Z,38.40
2023-05-17T06:41:13.068Z,38.20
2023-05-17T06:43:49.054Z,37.70
2023-05-17T06:46:25.127Z,37.80
2023-05-17T06:49:01.526Z,37.50
2023-05-17T06:51:37.778Z,37.50
2023-05-17T06:54:13.756Z,37.50
2023-05-17T06:56:52.976Z,37.20
2023-05-17T06:59:29.441Z,36.30
2023-05-17T07:02:05.835Z,36.00
2023-05-17T07:04:42.157Z,35.90
2023-05-17T07:07:18.537Z,35.90
2023-05-17T07:09:54.790Z,35.70
2023-05-17T07:12:31.190Z,35.50
2023-05-17T07:15:08.252Z,35.70
2023-05-17T07:17:44.492Z,35.90
2023-05-17T07:20:20.994Z,36.00
2023-05-17T07:23:00.494Z,36.10
2023-05-17T07:25:40.639Z,36.10
2023-05-17T07:28:16.863Z,36.10
2023-05-17T07:30:52.989Z,35.90
2023-05-17T07:33:29.143Z,35.90
2023-05-17T07:36:06.588Z,36.10
2023-05-17T07:38:42.633Z,35.90
2023-05-17T07:41:22.495Z,35.50
2023-05-17T07:43:58.772Z,35.60
2023-05-17T07:46:34.909Z,35.20
2023-05-17T07:49:11.160Z,35.20
2023-05-17T07:51:47.592Z,35.00
2023-05-17T07:54:27.317Z,35.50
2023-05-17T07:57:03.698Z,34.60
2023-05-17T07:59:39.873Z,33.90
2023-05-17T08:02:15.946Z,34.00
2023-05-17T08:04:52.345Z,34.00
2023-05-17T08:07:28.508Z,34.00
2023-05-17T08:10:05.173Z,33.90
2023-05-17T08:12:41.247Z,34.00
2023-05-17T08:15:17.320Z,33.70
2023-05-17T08:17:53.433Z,33.70
2023-05-17T08:20:29.523Z,33.70
2023-05-17T08:23:05.679Z,33.30
2023-05-17T08:25:42.165Z,32.80
2023-05-17T08:28:18.884Z,32.80
2023-05-17T08:30:54.857Z,32.50
2023-05-17T08:33:31.040Z,32.30
2023-05-17T08:36:08.251Z,32.40
2023-05-17T08:38:44.513Z,32.70
2023-05-17T08:41:21.322Z,32.30
2023-05-17T08:43:59.112Z,31.90
2023-05-17T08:46:37.036Z,31.50
2023-05-17T08:49:15.847Z,31.40
2023-05-17T08:51:54.315Z,31.60
2023-05-17T08:54:31.196Z,31.10
2023-05-17T08:57:11.864Z,30.50
2023-05-17T08:59:48.203Z,30.50
2023-05-17T09:02:25.936Z,30.40
2023-05-17T09:05:02.843Z,30.00
2023-05-17T09:07:39.347Z,30.50
2023-05-17T09:10:15.457Z,30.40
2023-05-17T09:12:52.893Z,30.10
2023-05-17T09:15:30.588Z,29.90
2023-05-17T09:18:11.465Z,29.70
2023-05-17T09:20:51.888Z,29.80
2023-05-17T09:23:28.265Z,29.30
2023-05-17T09:26:10.920Z,29.20
2023-05-17T09:28:48.478Z,29.20
2023-05-17T09:31:24.684Z,29.20
2023-05-17T09:34:01.255Z,29.20
2023-05-17T09:36:39.398Z,28.90
2023-05-17T09:39:15.722Z,28.60
2023-05-17T09:41:57.196Z,28.90
2023-05-17T09:44:49.754Z,28.80
2023-05-17T09:47:35.372Z,28.80
2023-05-17T09:50:23.813Z,28.60
2023-05-17T09:53:01.573Z,27.30
2023-05-17T09:55:39.307Z,27.40
2023-05-17T09:58:15.721Z,27.70
2023-05-17T10:00:54.272Z,27.10
2023-05-17T10:03:38.322Z,27.40
2023-05-17T10:06:23.740Z,26.80
2023-05-17T10:09:14.050Z,27.10
2023-05-17T10:11:53.022Z,27.10
2023-05-17T10:14:34.274Z,27.10
2023-05-17T10:17:11.951Z,27.60
2023-05-17T10:19:49.605Z,27.20
2023-05-17T10:22:29.190Z,27.10
2023-05-17T10:25:06.814Z,27.40
2023-05-17T10:27:43.673Z,27.30
2023-05-17T10:30:20.453Z,26.70
2023-05-17T10:32:57.371Z,27.00
2023-05-17T10:35:35.167Z,27.00
2023-05-17T10:38:12.159Z,27.40
2023-05-17T10:40:49.136Z,27.20
2023-05-17T10:43:26.150Z,27.00
2023-05-17T10:46:04.374Z,26.90
2023-05-17T10:48:40.933Z,27.00
2023-05-17T10:51:40.073Z,26.70
2023-05-17T10:54:18.651Z,26.50
2023-05-17T10:56:55.870Z,26.00
2023-05-17T10:59:33.825Z,26.40
2023-05-17T11:02:10.618Z,26.50
2023-05-17T11:04:56.135Z,26.30
2023-05-17T11:07:35.166Z,26.60
2023-05-17T11:10:17.210Z,26.00
2023-05-17T11:12:57.769Z,26.30
2023-05-17T11:15:34.007Z,26.50
2023-05-17T11:18:18.861Z,26.10
2023-05-17T11:21:08.909Z,26.60
2023-05-17T11:23:46.591Z,26.80
2023-05-17T11:26:33.301Z,26.70
2023-05-17T11:29:11.230Z,26.20
2023-05-17T11:31:52.436Z,26.30
2023-05-17T11:34:28.650Z,25.80
2023-05-17T11:37:06.191Z,26.10
2023-05-17T11:40:03.951Z,25.90
2023-05-17T11:42:40.330Z,26.70
2023-05-17T11:45:17.907Z,26.20
2023-05-17T11:47:54.127Z,26.50
2023-05-17T11:50:30.419Z,26.70
2023-05-17T11:53:08.075Z,25.80
2023-05-17T11:55:52.909Z,26.00
2023-05-17T11:58:29.700Z,26.20
2023-05-17T12:01:06.101Z,26.10
2023-05-17T12:03:42.533Z,25.90
2023-05-17T12:06:18.844Z,25.90
2023-05-17T12:08:56.029Z,25.70
2023-05-17T12:11:32.402Z,25.90
2023-05-17T12:14:08.443Z,26.20
2023-05-17T12:16:45.641Z,26.10
2023-05-17T12:19:23.735Z,26.20
2023-05-17T12:22:12.828Z,26.00
2023-05-17T12:24:49.301Z,26.00
2023-05-17T12:27:31.334Z,25.70
2023-05-17T12:30:17.229Z,25.60
2023-05-17T12:32:53.657Z,25.60
2023-05-17T12:35:31.719Z,25.20
2023-05-17T12:38:08.599Z,25.50
2023-05-17T12:40:44.743Z,25.70
2023-05-17T12:43:24.574Z,25.70
2023-05-17T12:46:12.614Z,26.00
2023-05-17T12:48:51.724Z,25.90
2023-05-17T12:51:27.863Z,26.00
2023-05-17T12:54:04.274Z,26.20
2023-05-17T12:56:46.820Z,26.10
2023-05-17T12:59:25.595Z,26.60
2023-05-17T13:02:02.320Z,26.40
2023-05-17T13:04:39.052Z,26.50
2023-05-17T13:07:23.940Z,26.00
2023-05-17T13:10:00.130Z,26.20
2023-05-17T13:12:39.368Z,25.80
2023-05-17T13:15:15.474Z,25.30
2023-05-17T13:17:51.657Z,25.20
2023-05-17T13:20:28.271Z,25.50
2023-05-17T13:23:07.264Z,25.60
2023-05-17T13:25:43.455Z,25.70
2023-05-17T13:28:20.007Z,25.40
2023-05-17T13:30:56.225Z,25.40
2023-05-17T13:33:32.693Z,25.80
2023-05-17T13:36:09.057Z,25.90
2023-05-17T13:38:44.969Z,25.70
2023-05-17T13:41:20.921Z,25.70
2023-05-17T13:44:00.137Z,25.50
2023-05-17T13:46:36.424Z,24.90
2023-05-17T13:49:12.939Z,25.10
2023-05-17T13:51:49.436Z,25.10
2023-05-17T13:54:25.441Z,25.40
2023-05-17T13:57:02.121Z,25.20
2023-05-17T13:59:38.226Z,25.20
2023-05-17T14:02:14.322Z,25.20
2023-05-17T14:04:50.682Z,25.50
2023-05-17T14:07:26.607Z,25.10
2023-05-17T14:10:02.614Z,25.30
2023-05-17T14:12:39.518Z,24.70
2023-05-17T14:15:15.466Z,24.90
2023-05-17T14:17:51.757Z,24.90
2023-05-17T14:20:28.100Z,24.90
2023-05-17T14:23:04.645Z,25.30
2023-05-17T14:25:43.638Z,25.20
2023-05-17T14:28:19.690Z,25.60
2023-05-17T14:30:55.634Z,25.20
2023-05-17T14:33:31.596Z,25.30
2023-05-17T14:36:07.861Z,25.60
2023-05-17T14:38:43.765Z,25.60
2023-05-17T14:41:19.689Z,25.50
2023-05-17T14:43:55.731Z,25.40
2023-05-17T14:46:31.629Z,25.40
2023-05-17T14:49:07.655Z,25.70
2023-05-17T14:51:44.831Z,25.70
2023-05-17T14:54:21.387Z,25.80
2023-05-17T14:56:57.358Z,26.50
2023-05-17T14:59:33.246Z,26.40
2023-05-17T15:02:09.394Z,26.50
2023-05-17T15:04:45.705Z,26.50
2023-05-17T15:07:21.685Z,26.80
2023-05-17T15:09:57.587Z,26.80
2023-05-17T15:12:33.504Z,26.70
2023-05-17T15:15:10.327Z,27.00
2023-05-17T15:17:46.928Z,26.80
2023-05-17T15:20:23.442Z,26.50
2023-05-17T15:22:59.400Z,26.60
2023-05-17T15:25:35.436Z,26.60
2023-05-17T15:28:11.576Z,26.20
2023-05-17T15:30:48.018Z,26.00
2023-05-17T15:33:23.984Z,26.20
2023-05-17T15:35:59.970Z,26.20
2023-05-17T15:38:36.029Z,26.00
2023-05-17T15:41:15.901Z,25.80
2023-05-17T15:43:51.826Z,25.40
2023-05-17T15:46:27.822Z,25.60
2023-05-17T15:49:03.924Z,25.60
2023-05-17T15:51:39.886Z,25.90
2023-05-17T15:54:15.943Z,25.60
2023-05-17T15:56:51.852Z,25.70
2023-05-17T15:59:27.773Z,25.40
2023-05-17T16:02:03.844Z,25.20
2023-05-17T16:04:39.861Z,24.90
2023-05-17T16:07:15.834Z,24.00
2023-05-17T16:09:51.773Z,23.60
2023-05-17T16:12:27.708Z,23.10
2023-05-17T16:15:03.794Z,23.40
2023-05-17T16:17:39.810Z,23.80
2023-05-17T16:20:15.860Z,23.50
2023-05-17T16:22:53.737Z,23.80
2023-05-17T16:25:30.038Z,23.80
2023-05-17T16:28:06.142Z,24.30
2023-05-17T16:30:42.053Z,24.00
2023-05-17T16:33:20.487Z,24.20
2023-05-17T16:35:58.636Z,24.10
2023-05-17T16:38:34.599Z,24.10
2023-05-17T16:41:10.765Z,23.60
2023-05-17T16:43:46.727Z,23.80
2023-05-17T16:46:24.748Z,23.60
2023-05-17T16:49:00.940Z,23.80
2023-05-17T16:51:36.964Z,24.10
2023-05-17T16:54:12.957Z,24.00
2023-05-17T16:56:49.050Z,23.90
2023-05-17T16:59:25.169Z,24.20
2023-05-17T17:02:02.237Z,23.90
2023-05-17T17:04:38.258Z,24.10
2023-05-17T17:07:14.183Z,24.20
2023-05-17T17:09:50.100Z,24.20
2023-05-17T17:12:26.364Z,23.90
2023-05-17T17:15:02.262Z,23.80
2023-05-17T17:17:39.175Z,24.20
2023-05-17T17:20:15.229Z,23.90
2023-05-17T17:22:51.272Z,23.70
2023-05-17T17:25:27.958Z,23.90
2023-05-17T17:28:04.023Z,24.10
2023-05-17T17:30:39.922Z,24.10
2023-05-17T17:33:15.980Z,23.80
2023-05-17T17:35:52.039Z,23.80
2023-05-17T17:38:28.169Z,24.30
2023-05-17T17:41:04.248Z,24.20
2023-05-17T17:43:42.595Z,24.30
2023-05-17T17:46:18.526Z,24.20
2023-05-17T17:48:56.664Z,24.30
2023-05-17T17:51:32.965Z,24.30
2023-05-17T17:54:08.951Z,24.40
2023-05-17T17:56:45.441Z,24.30
2023-05-17T17:59:21.589Z,24.20
2023-05-17T18:01:59.473Z,24.40
2023-05-17T18:04:35.595Z,24.70
2023-05-17T18:07:14.068Z,24.50
2023-05-17T18:09:50.929Z,24.50
2023-05-17T18:12:27.603Z,24.70
2023-05-17T18:15:04.522Z,24.50
2023-05-17T18:17:41.550Z,25.00
2023-05-17T18:20:18.492Z,24.80
2023-05-17T18:22:54.437Z,24.80
2023-05-17T18:25:30.533Z,25.10
2023-05-17T18:28:08.662Z,25.30
2023-05-17T18:30:44.815Z,25.50
2023-05-17T18:33:21.313Z,25.60
2023-05-17T18:35:57.270Z,25.70
2023-05-17T18:38:35.390Z,25.80
2023-05-17T18:41:11.314Z,25.80
2023-05-17T18:43:47.238Z,25.90
2023-05-17T18:46:23.278Z,26.00
2023-05-17T18:49:00.366Z,26.20
2023-05-17T18:51:36.274Z,26.30
2023-05-17T18:54:12.410Z,26.50
2023-05-17T18:56:48.329Z,26.60
2023-05-17T18:59:24.231Z,26.80
2023-05-17T19:02:00.536Z,26.90
2023-05-17T19:04:36.883Z,26.90
2023-05-17T19:07:13.047Z,27.00
2023-05-17T19:09:49.132Z,27.10
2023-05-17T19:12:25.116Z,27.30
2023-05-17T19:15:01.114Z,27.50
2023-05-17T19:17:37.185Z,27.60
2023-05-17T19:20:13.471Z,27.70
2023-05-17T19:22:50.089Z,27.80
2023-05-17T19:25:26.011Z,27.80
2023-05-17T19:28:01.983Z,28.00
2023-05-17T19:30:37.939Z,28.10
2023-05-17T19:33:13.851Z,28.20
2023-05-17T19:35:49.910Z,28.40
2023-05-17T19:38:26.101Z,28.50
2023-05-17T19:41:02.633Z,28.60
2023-05-17T19:43:38.583Z,28.60
2023-05-17T19:46:14.563Z,28.70
2023-05-17T19:48:50.911Z,28.80
2023-05-17T19:51:26.870Z,29.00
2023-05-17T19:54:02.785Z,29.00
2023-05-17T19:56:38.871Z,29.00
2023-05-17T19:59:14.847Z,29.00
2023-05-17T20:01:51.228Z,29.20
2023-05-17T20:04:27.195Z,29.30
2023-05-17T20:07:03.410Z,29.30
2023-05-17T20:09:39.579Z,29.40
2023-05-17T20:12:16.159Z,29.50
2023-05-17T20:14:55.408Z,29.60
2023-05-17T20:17:32.488Z,29.60
2023-05-17T20:20:09.507Z,29.60
2023-05-17T20:22:46.347Z,29.90
2023-05-17T20:25:22.451Z,30.00
2023-05-17T20:27:58.418Z,30.00
2023-05-17T20:30:34.344Z,30.00
2023-05-17T20:33:10.802Z,30.20
2023-05-17T20:35:46.837Z,30.30
2023-05-17T20:38:26.074Z,30.50
2023-05-17T20:41:02.057Z,30.70
2023-05-17T20:43:38.066Z,30.80
2023-05-17T20:46:14.565Z,30.90
2023-05-17T20:48:50.623Z,30.80
2023-05-17T20:51:27.380Z,30.90
2023-05-17T20:54:03.804Z,31.10
2023-05-17T20:56:40.137Z,31.10
2023-05-17T20:59:16.709Z,31.20
2023-05-17T21:01:53.095Z,31.30
2023-05-17T21:04:29.112Z,31.40
2023-05-17T21:07:05.288Z,31.50
2023-05-17T21:09:41.192Z,31.70
2023-05-17T21:12:17.146Z,31.80
2023-05-17T21:15:07.853Z,31.70
2023-05-17T21:17:49.389Z,31.80
2023-05-17T21:20:25.476Z,31.90
2023-05-17T21:23:01.429Z,32.00
2023-05-17T21:25:37.898Z,32.00
2023-05-17T21:28:14.104Z,32.00
2023-05-17T21:30:50.034Z,32.20
2023-05-17T21:33:25.941Z,32.30
2023-05-17T21:36:02.377Z,32.50
2023-05-17T21:38:38.266Z,32.60
2023-05-17T21:41:14.176Z,32.70
2023-05-17T21:43:50.220Z,32.70
2023-05-17T21:46:26.192Z,32.90
2023-05-17T21:49:02.107Z,32.90
2023-05-17T21:51:38.030Z,33.20
2023-05-17T21:54:14.058Z,33.20
2023-05-17T21:56:49.960Z,33.30
2023-05-17T21:59:25.969Z,33.40
2023-05-17T22:02:01.985Z,33.40
2023-05-17T22:04:38.954Z,33.60
2023-05-17T22:07:15.001Z,33.80
2023-05-17T22:09:51.248Z,33.90
2023-05-17T22:12:27.778Z,34.00
2023-05-17T22:15:04.410Z,34.90
2023-05-17T22:17:51.029Z,35.00
2023-05-17T22:20:29.293Z,34.40
2023-05-17T22:23:05.552Z,35.20
2023-05-17T22:25:41.448Z,35.30
2023-05-17T22:28:17.353Z,35.40
2023-05-17T22:30:54.186Z,35.40
2023-05-17T22:33:30.960Z,35.40
2023-05-17T22:36:07.463Z,35.40
2023-05-17T22:38:44.096Z,35.60
2023-05-17T22:41:20.025Z,35.50
2023-05-17T22:43:56.141Z,35.70
2023-05-17T22:46:33.284Z,35.80
2023-05-17T22:49:09.691Z,35.90
2023-05-17T22:51:45.835Z,36.10
2023-05-17T22:54:21.927Z,36.30
2023-05-17T22:56:57.837Z,36.50
2023-05-17T22:59:33.787Z,36.60
2023-05-17T23:02:11.685Z,36.90
2023-05-17T23:04:47.624Z,37.20
2023-05-17T23:07:23.650Z,37.40
2023-05-17T23:09:59.542Z,37.60
2023-05-17T23:12:37.082Z,37.70
2023-05-17T23:15:13.057Z,37.90
2023-05-17T23:17:49.061Z,38.10
2023-05-17T23:20:26.703Z,38.20
2023-05-17T23:23:02.808Z,38.50
2023-05-17T23:25:39.179Z,38.70
2023-05-17T23:28:15.112Z,38.80
2023-05-17T23:30:53.588Z,39.10
2023-05-17T23:33:31.254Z,39.10
2023-05-17T23:36:07.691Z,39.20
2023-05-17T23:38:43.628Z,39.30
2023-05-17T23:41:21.501Z,39.60
2023-05-17T23:43:57.471Z,39.80
2023-05-17T23:46:34.283Z,39.90
2023-05-17T23:49:10.716Z,40.10
2023-05-17T23:51:46.647Z,40.20
2023-05-17T23:54:24.301Z,40.30
2023-05-17T23:57:00.577Z,40.70
2023-05-17T23:59:36.848Z,41.10
